sensor_id;sensor_type;location;lat;lon;timestamp;P1;durP1;ratioP1;P2;durP2;ratioP2
59271;SDS011;45043;51.068;7.026;2022-12-29T00:01:49;2.20;;;2.00;;
59271;SDS011;45043;51.068;7.026;2022-12-29T00:04:49;2.33;;;1.90;;
59271;SDS011;45043;51.068;7.026;2022-12-29T00:07:50;2.00;;;1.90;;
59271;SDS011;45043;51.068;7.026;2022-12-29T00:10:51;2.07;;;1.87;;
59271;SDS011;45043;51.068;7.026;2022-12-29T00:13:51;2.10;;;1.90;;
59271;SDS011;45043;51.068;7.026;2022-12-29T00:17:12;2.47;;;2.03;;
59271;SDS011;45043;51.068;7.026;2022-12-29T00:20:13;2.37;;;1.80;;
59271;SDS011;45043;51.068;7.026;2022-12-29T00:23:32;2.70;;;2.00;;
59271;SDS011;45043;51.068;7.026;2022-12-29T00:30:23;2.20;;;1.70;;
59271;SDS011;45043;51.068;7.026;2022-12-29T00:33:43;2.13;;;1.90;;
59271;SDS011;45043;51.068;7.026;2022-12-29T00:37:02;1.73;;;1.50;;
59271;SDS011;45043;51.068;7.026;2022-12-29T00:40:02;1.50;;;1.40;;
59271;SDS011;45043;51.068;7.026;2022-12-29T00:43:22;1.37;;;1.20;;
59271;SDS011;45043;51.068;7.026;2022-12-29T00:46:41;1.73;;;1.60;;
59271;SDS011;45043;51.068;7.026;2022-12-29T00:49:42;1.50;;;1.37;;
59271;SDS011;45043;51.068;7.026;2022-12-29T00:52:43;1.20;;;1.10;;
59271;SDS011;45043;51.068;7.026;2022-12-29T00:55:44;1.17;;;1.07;;
59271;SDS011;45043;51.068;7.026;2022-12-29T00:58:44;1.53;;;1.43;;
59271;SDS011;45043;51.068;7.026;2022-12-29T01:01:45;1.10;;;1.00;;
59271;SDS011;45043;51.068;7.026;2022-12-29T01:04:47;1.13;;;1.13;;
59271;SDS011;45043;51.068;7.026;2022-12-29T01:07:50;1.03;;;1.00;;
59271;SDS011;45043;51.068;7.026;2022-12-29T01:11:06;1.93;;;1.23;;
59271;SDS011;45043;51.068;7.026;2022-12-29T01:14:09;1.03;;;1.00;;
59271;SDS011;45043;51.068;7.026;2022-12-29T01:17:10;1.00;;;1.00;;
59271;SDS011;45043;51.068;7.026;2022-12-29T01:20:11;1.30;;;1.20;;
59271;SDS011;45043;51.068;7.026;2022-12-29T01:23:12;1.03;;;0.93;;
59271;SDS011;45043;51.068;7.026;2022-12-29T01:26:13;1.00;;;0.93;;
59271;SDS011;45043;51.068;7.026;2022-12-29T01:29:16;1.00;;;1.00;;
59271;SDS011;45043;51.068;7.026;2022-12-29T01:32:21;1.87;;;1.27;;
59271;SDS011;45043;51.068;7.026;2022-12-29T01:35:21;1.20;;;1.10;;
59271;SDS011;45043;51.068;7.026;2022-12-29T01:38:22;0.90;;;0.90;;
59271;SDS011;45043;51.068;7.026;2022-12-29T01:41:23;1.20;;;1.10;;
59271;SDS011;45043;51.068;7.026;2022-12-29T01:47:57;2.00;;;0.93;;
59271;SDS011;45043;51.068;7.026;2022-12-29T01:51:03;1.07;;;1.07;;
59271;SDS011;45043;51.068;7.026;2022-12-29T01:54:06;0.70;;;0.70;;
59271;SDS011;45043;51.068;7.026;2022-12-29T01:57:12;1.00;;;1.00;;
59271;SDS011;45043;51.068;7.026;2022-12-29T02:00:21;0.70;;;0.70;;
59271;SDS011;45043;51.068;7.026;2022-12-29T02:03:22;0.77;;;0.77;;
59271;SDS011;45043;51.068;7.026;2022-12-29T02:06:31;1.33;;;0.87;;
59271;SDS011;45043;51.068;7.026;2022-12-29T02:09:37;0.70;;;0.70;;
59271;SDS011;45043;51.068;7.026;2022-12-29T02:12:38;0.80;;;0.80;;
59271;SDS011;45043;51.068;7.026;2022-12-29T02:15:46;0.87;;;0.87;;
59271;SDS011;45043;51.068;7.026;2022-12-29T02:25:39;1.90;;;0.97;;
59271;SDS011;45043;51.068;7.026;2022-12-29T02:29:21;1.00;;;0.90;;
59271;SDS011;45043;51.068;7.026;2022-12-29T02:39:15;1.57;;;1.10;;
59271;SDS011;45043;51.068;7.026;2022-12-29T02:42:35;1.67;;;1.20;;
59271;SDS011;45043;51.068;7.026;2022-12-29T02:45:50;0.90;;;0.80;;
59271;SDS011;45043;51.068;7.026;2022-12-29T02:48:59;2.07;;;1.17;;
59271;SDS011;45043;51.068;7.026;2022-12-29T02:52:18;1.07;;;0.80;;
59271;SDS011;45043;51.068;7.026;2022-12-29T02:55:24;1.40;;;1.20;;
59271;SDS011;45043;51.068;7.026;2022-12-29T02:58:26;1.23;;;1.00;;
59271;SDS011;45043;51.068;7.026;2022-12-29T03:11:50;3.30;;;1.20;;
59271;SDS011;45043;51.068;7.026;2022-12-29T03:15:10;0.93;;;0.90;;
59271;SDS011;45043;51.068;7.026;2022-12-29T03:21:55;1.27;;;0.97;;
59271;SDS011;45043;51.068;7.026;2022-12-29T03:25:43;0.80;;;0.80;;
59271;SDS011;45043;51.068;7.026;2022-12-29T03:28:51;1.30;;;0.80;;
59271;SDS011;45043;51.068;7.026;2022-12-29T03:31:57;1.27;;;1.10;;
59271;SDS011;45043;51.068;7.026;2022-12-29T03:35:01;1.07;;;0.97;;
59271;SDS011;45043;51.068;7.026;2022-12-29T03:38:14;1.30;;;1.00;;
59271;SDS011;45043;51.068;7.026;2022-12-29T03:41:23;1.00;;;1.00;;
59271;SDS011;45043;51.068;7.026;2022-12-29T03:44:36;1.23;;;1.13;;
59271;SDS011;45043;51.068;7.026;2022-12-29T03:47:39;1.33;;;1.23;;
59271;SDS011;45043;51.068;7.026;2022-12-29T03:50:40;1.33;;;1.23;;
59271;SDS011;45043;51.068;7.026;2022-12-29T03:53:41;1.00;;;0.90;;
59271;SDS011;45043;51.068;7.026;2022-12-29T03:56:42;1.47;;;1.37;;
59271;SDS011;45043;51.068;7.026;2022-12-29T03:59:42;1.00;;;1.00;;
59271;SDS011;45043;51.068;7.026;2022-12-29T04:02:43;1.73;;;1.10;;
59271;SDS011;45043;51.068;7.026;2022-12-29T04:05:47;1.50;;;0.90;;
59271;SDS011;45043;51.068;7.026;2022-12-29T04:08:48;1.23;;;1.03;;
59271;SDS011;45043;51.068;7.026;2022-12-29T04:11:50;0.80;;;0.80;;
59271;SDS011;45043;51.068;7.026;2022-12-29T04:14:51;0.90;;;0.80;;
59271;SDS011;45043;51.068;7.026;2022-12-29T04:17:52;1.10;;;1.00;;
59271;SDS011;45043;51.068;7.026;2022-12-29T04:20:52;0.83;;;0.83;;
59271;SDS011;45043;51.068;7.026;2022-12-29T04:24:04;1.17;;;0.93;;
59271;SDS011;45043;51.068;7.026;2022-12-29T04:27:09;1.10;;;1.10;;
59271;SDS011;45043;51.068;7.026;2022-12-29T04:30:22;0.93;;;0.93;;
59271;SDS011;45043;51.068;7.026;2022-12-29T04:33:43;1.53;;;1.27;;
59271;SDS011;45043;51.068;7.026;2022-12-29T04:36:44;1.10;;;1.00;;
59271;SDS011;45043;51.068;7.026;2022-12-29T04:39:46;0.90;;;0.80;;
59271;SDS011;45043;51.068;7.026;2022-12-29T04:42:47;1.17;;;1.10;;
59271;SDS011;45043;51.068;7.026;2022-12-29T04:45:48;2.87;;;1.10;;
59271;SDS011;45043;51.068;7.026;2022-12-29T04:49:09;1.07;;;1.03;;
59271;SDS011;45043;51.068;7.026;2022-12-29T04:52:28;2.90;;;1.07;;
59271;SDS011;45043;51.068;7.026;2022-12-29T04:55:29;1.00;;;0.90;;
59271;SDS011;45043;51.068;7.026;2022-12-29T04:58:29;1.10;;;1.00;;
59271;SDS011;45043;51.068;7.026;2022-12-29T05:01:32;1.10;;;1.10;;
59271;SDS011;45043;51.068;7.026;2022-12-29T05:04:34;0.97;;;0.97;;
59271;SDS011;45043;51.068;7.026;2022-12-29T05:07:34;0.80;;;0.80;;
59271;SDS011;45043;51.068;7.026;2022-12-29T05:10:35;1.20;;;0.80;;
59271;SDS011;45043;51.068;7.026;2022-12-29T05:13:47;0.70;;;0.70;;
59271;SDS011;45043;51.068;7.026;2022-12-29T05:16:49;1.87;;;0.90;;
59271;SDS011;45043;51.068;7.026;2022-12-29T05:19:51;1.00;;;0.90;;
59271;SDS011;45043;51.068;7.026;2022-12-29T05:22:52;0.87;;;0.80;;
59271;SDS011;45043;51.068;7.026;2022-12-29T05:25:53;1.20;;;1.00;;
59271;SDS011;45043;51.068;7.026;2022-12-29T05:29:20;1.60;;;0.90;;
59271;SDS011;45043;51.068;7.026;2022-12-29T05:32:21;1.03;;;0.90;;
59271;SDS011;45043;51.068;7.026;2022-12-29T05:35:21;2.07;;;1.00;;
59271;SDS011;45043;51.068;7.026;2022-12-29T05:38:22;1.03;;;0.73;;
59271;SDS011;45043;51.068;7.026;2022-12-29T05:41:23;1.80;;;1.00;;
59271;SDS011;45043;51.068;7.026;2022-12-29T05:44:29;1.53;;;1.10;;
59271;SDS011;45043;51.068;7.026;2022-12-29T05:47:45;2.33;;;1.20;;
59271;SDS011;45043;51.068;7.026;2022-12-29T05:51:01;10.50;;;1.77;;
59271;SDS011;45043;51.068;7.026;2022-12-29T05:54:11;2.70;;;1.30;;
59271;SDS011;45043;51.068;7.026;2022-12-29T05:57:11;1.97;;;0.87;;
59271;SDS011;45043;51.068;7.026;2022-12-29T06:00:13;1.13;;;1.03;;
59271;SDS011;45043;51.068;7.026;2022-12-29T06:03:20;2.40;;;0.80;;
59271;SDS011;45043;51.068;7.026;2022-12-29T06:06:21;1.20;;;1.00;;
59271;SDS011;45043;51.068;7.026;2022-12-29T06:09:21;2.93;;;0.93;;
59271;SDS011;45043;51.068;7.026;2022-12-29T06:12:22;1.00;;;0.80;;
59271;SDS011;45043;51.068;7.026;2022-12-29T06:15:25;0.87;;;0.80;;
59271;SDS011;45043;51.068;7.026;2022-12-29T06:18:27;1.17;;;0.87;;
59271;SDS011;45043;51.068;7.026;2022-12-29T06:21:27;2.23;;;0.80;;
59271;SDS011;45043;51.068;7.026;2022-12-29T06:24:28;2.20;;;0.90;;
59271;SDS011;45043;51.068;7.026;2022-12-29T06:27:28;0.90;;;0.70;;
59271;SDS011;45043;51.068;7.026;2022-12-29T06:30:29;2.43;;;0.77;;
59271;SDS011;45043;51.068;7.026;2022-12-29T06:33:30;2.10;;;0.97;;
59271;SDS011;45043;51.068;7.026;2022-12-29T06:36:31;0.90;;;0.80;;
59271;SDS011;45043;51.068;7.026;2022-12-29T06:39:31;2.03;;;0.90;;
59271;SDS011;45043;51.068;7.026;2022-12-29T06:42:39;5.60;;;0.90;;
59271;SDS011;45043;51.068;7.026;2022-12-29T06:46:05;1.60;;;0.97;;
59271;SDS011;45043;51.068;7.026;2022-12-29T06:49:06;2.43;;;0.93;;
59271;SDS011;45043;51.068;7.026;2022-12-29T06:52:06;2.27;;;1.00;;
59271;SDS011;45043;51.068;7.026;2022-12-29T06:55:07;1.40;;;1.00;;
59271;SDS011;45043;51.068;7.026;2022-12-29T06:58:08;2.27;;;1.23;;
59271;SDS011;45043;51.068;7.026;2022-12-29T07:01:08;2.03;;;0.90;;
59271;SDS011;45043;51.068;7.026;2022-12-29T07:04:09;1.00;;;0.77;;
59271;SDS011;45043;51.068;7.026;2022-12-29T07:07:10;2.23;;;0.97;;
59271;SDS011;45043;51.068;7.026;2022-12-29T07:10:10;1.97;;;1.00;;
59271;SDS011;45043;51.068;7.026;2022-12-29T07:13:11;2.37;;;1.00;;
59271;SDS011;45043;51.068;7.026;2022-12-29T07:16:11;1.97;;;1.07;;
59271;SDS011;45043;51.068;7.026;2022-12-29T07:19:12;1.07;;;0.90;;
59271;SDS011;45043;51.068;7.026;2022-12-29T07:22:12;2.03;;;1.30;;
59271;SDS011;45043;51.068;7.026;2022-12-29T07:25:17;0.90;;;0.77;;
59271;SDS011;45043;51.068;7.026;2022-12-29T07:28:17;0.93;;;0.90;;
59271;SDS011;45043;51.068;7.026;2022-12-29T07:31:19;1.17;;;0.93;;
59271;SDS011;45043;51.068;7.026;2022-12-29T07:34:22;2.50;;;1.10;;
59271;SDS011;45043;51.068;7.026;2022-12-29T07:37:22;2.87;;;1.10;;
59271;SDS011;45043;51.068;7.026;2022-12-29T07:40:22;2.27;;;1.43;;
59271;SDS011;45043;51.068;7.026;2022-12-29T07:43:23;1.50;;;0.90;;
59271;SDS011;45043;51.068;7.026;2022-12-29T07:46:43;2.10;;;0.90;;
59271;SDS011;45043;51.068;7.026;2022-12-29T07:49:44;2.03;;;1.00;;
59271;SDS011;45043;51.068;7.026;2022-12-29T07:52:44;2.60;;;1.00;;
59271;SDS011;45043;51.068;7.026;2022-12-29T07:55:46;1.47;;;1.00;;
59271;SDS011;45043;51.068;7.026;2022-12-29T07:58:47;1.67;;;0.90;;
59271;SDS011;45043;51.068;7.026;2022-12-29T08:01:48;2.47;;;1.07;;
59271;SDS011;45043;51.068;7.026;2022-12-29T08:04:48;1.80;;;1.07;;
59271;SDS011;45043;51.068;7.026;2022-12-29T08:07:49;3.43;;;1.30;;
59271;SDS011;45043;51.068;7.026;2022-12-29T08:10:49;3.43;;;1.10;;
59271;SDS011;45043;51.068;7.026;2022-12-29T08:13:49;2.47;;;1.20;;
59271;SDS011;45043;51.068;7.026;2022-12-29T08:16:50;2.37;;;1.03;;
59271;SDS011;45043;51.068;7.026;2022-12-29T08:19:50;3.30;;;1.30;;
59271;SDS011;45043;51.068;7.026;2022-12-29T08:22:51;3.87;;;1.40;;
59271;SDS011;45043;51.068;7.026;2022-12-29T08:26:00;3.07;;;1.30;;
59271;SDS011;45043;51.068;7.026;2022-12-29T08:29:03;2.70;;;1.40;;
59271;SDS011;45043;51.068;7.026;2022-12-29T08:32:04;3.47;;;1.33;;
59271;SDS011;45043;51.068;7.026;2022-12-29T08:35:04;3.10;;;1.30;;
59271;SDS011;45043;51.068;7.026;2022-12-29T08:38:05;2.13;;;1.20;;
59271;SDS011;45043;51.068;7.026;2022-12-29T08:41:06;3.97;;;1.40;;
59271;SDS011;45043;51.068;7.026;2022-12-29T08:44:06;3.97;;;1.43;;
59271;SDS011;45043;51.068;7.026;2022-12-29T08:47:08;3.87;;;1.50;;
59271;SDS011;45043;51.068;7.026;2022-12-29T08:50:10;4.90;;;1.50;;
59271;SDS011;45043;51.068;7.026;2022-12-29T08:53:11;2.90;;;1.40;;
59271;SDS011;45043;51.068;7.026;2022-12-29T08:56:11;3.17;;;1.20;;
59271;SDS011;45043;51.068;7.026;2022-12-29T08:59:19;4.97;;;1.27;;
59271;SDS011;45043;51.068;7.026;2022-12-29T09:02:22;1.90;;;1.20;;
59271;SDS011;45043;51.068;7.026;2022-12-29T09:05:22;4.17;;;1.30;;
59271;SDS011;45043;51.068;7.026;2022-12-29T09:08:23;3.00;;;1.40;;
59271;SDS011;45043;51.068;7.026;2022-12-29T09:11:24;3.10;;;1.43;;
59271;SDS011;45043;51.068;7.026;2022-12-29T09:14:25;2.57;;;1.20;;
59271;SDS011;45043;51.068;7.026;2022-12-29T09:17:26;3.80;;;1.47;;
59271;SDS011;45043;51.068;7.026;2022-12-29T09:20:44;2.40;;;1.20;;
59271;SDS011;45043;51.068;7.026;2022-12-29T09:23:45;3.63;;;1.40;;
59271;SDS011;45043;51.068;7.026;2022-12-29T09:26:45;3.63;;;1.80;;
59271;SDS011;45043;51.068;7.026;2022-12-29T09:29:46;2.73;;;1.37;;
59271;SDS011;45043;51.068;7.026;2022-12-29T09:32:46;3.17;;;1.60;;
59271;SDS011;45043;51.068;7.026;2022-12-29T09:35:55;6.37;;;1.83;;
59271;SDS011;45043;51.068;7.026;2022-12-29T09:38:57;3.43;;;1.77;;
59271;SDS011;45043;51.068;7.026;2022-12-29T09:45:16;5.10;;;1.90;;
59271;SDS011;45043;51.068;7.026;2022-12-29T09:48:29;3.93;;;1.60;;
59271;SDS011;45043;51.068;7.026;2022-12-29T09:51:36;4.83;;;2.10;;
59271;SDS011;45043;51.068;7.026;2022-12-29T09:57:56;6.43;;;1.90;;
59271;SDS011;45043;51.068;7.026;2022-12-29T10:01:02;5.20;;;2.07;;
59271;SDS011;45043;51.068;7.026;2022-12-29T10:04:05;8.87;;;1.77;;
59271;SDS011;45043;51.068;7.026;2022-12-29T10:10:33;3.77;;;1.70;;
59271;SDS011;45043;51.068;7.026;2022-12-29T10:17:12;5.53;;;1.60;;
59271;SDS011;45043;51.068;7.026;2022-12-29T10:23:50;4.53;;;1.70;;
59271;SDS011;45043;51.068;7.026;2022-12-29T10:26:52;4.20;;;1.50;;
59271;SDS011;45043;51.068;7.026;2022-12-29T10:29:56;5.07;;;1.50;;
59271;SDS011;45043;51.068;7.026;2022-12-29T10:33:02;5.43;;;1.80;;
59271;SDS011;45043;51.068;7.026;2022-12-29T10:36:13;4.27;;;1.60;;
59271;SDS011;45043;51.068;7.026;2022-12-29T10:42:33;8.40;;;1.90;;
59271;SDS011;45043;51.068;7.026;2022-12-29T10:45:40;6.13;;;2.00;;
59271;SDS011;45043;51.068;7.026;2022-12-29T10:48:41;6.13;;;1.90;;
59271;SDS011;45043;51.068;7.026;2022-12-29T10:51:46;4.57;;;1.50;;
59271;SDS011;45043;51.068;7.026;2022-12-29T10:57:59;6.00;;;1.80;;
59271;SDS011;45043;51.068;7.026;2022-12-29T11:01:07;6.53;;;2.00;;
59271;SDS011;45043;51.068;7.026;2022-12-29T11:07:22;5.33;;;1.70;;
59271;SDS011;45043;51.068;7.026;2022-12-29T11:10:58;4.67;;;1.50;;
59271;SDS011;45043;51.068;7.026;2022-12-29T11:17:14;6.63;;;1.60;;
59271;SDS011;45043;51.068;7.026;2022-12-29T11:20:27;6.07;;;2.10;;
59271;SDS011;45043;51.068;7.026;2022-12-29T11:23:37;4.97;;;1.73;;
59271;SDS011;45043;51.068;7.026;2022-12-29T11:26:40;4.90;;;1.70;;
59271;SDS011;45043;51.068;7.026;2022-12-29T11:29:43;4.50;;;1.27;;
59271;SDS011;45043;51.068;7.026;2022-12-29T11:32:50;6.00;;;1.87;;
59271;SDS011;45043;51.068;7.026;2022-12-29T11:35:53;7.00;;;1.83;;
59271;SDS011;45043;51.068;7.026;2022-12-29T11:38:58;6.90;;;1.77;;
59271;SDS011;45043;51.068;7.026;2022-12-29T11:41:59;7.37;;;2.00;;
59271;SDS011;45043;51.068;7.026;2022-12-29T11:45:15;6.47;;;2.17;;
59271;SDS011;45043;51.068;7.026;2022-12-29T11:48:23;4.00;;;1.37;;
59271;SDS011;45043;51.068;7.026;2022-12-29T11:51:32;6.47;;;2.00;;
59271;SDS011;45043;51.068;7.026;2022-12-29T11:54:39;4.40;;;1.87;;
59271;SDS011;45043;51.068;7.026;2022-12-29T11:57:39;4.37;;;1.93;;
59271;SDS011;45043;51.068;7.026;2022-12-29T12:00:42;5.07;;;2.00;;
59271;SDS011;45043;51.068;7.026;2022-12-29T12:03:47;4.10;;;1.30;;
59271;SDS011;45043;51.068;7.026;2022-12-29T12:07:05;7.83;;;2.40;;
59271;SDS011;45043;51.068;7.026;2022-12-29T12:10:26;4.27;;;1.53;;
59271;SDS011;45043;51.068;7.026;2022-12-29T12:13:37;6.37;;;1.70;;
59271;SDS011;45043;51.068;7.026;2022-12-29T12:17:04;5.87;;;2.33;;
59271;SDS011;45043;51.068;7.026;2022-12-29T12:23:51;8.83;;;1.97;;
59271;SDS011;45043;51.068;7.026;2022-12-29T12:27:18;6.63;;;2.00;;
59271;SDS011;45043;51.068;7.026;2022-12-29T12:30:37;5.63;;;1.80;;
59271;SDS011;45043;51.068;7.026;2022-12-29T12:33:44;6.27;;;2.10;;
59271;SDS011;45043;51.068;7.026;2022-12-29T12:46:48;5.30;;;1.70;;
59271;SDS011;45043;51.068;7.026;2022-12-29T12:56:43;5.13;;;1.63;;
59271;SDS011;45043;51.068;7.026;2022-12-29T13:00:08;3.77;;;1.37;;
59271;SDS011;45043;51.068;7.026;2022-12-29T13:03:13;4.37;;;1.97;;
59271;SDS011;45043;51.068;7.026;2022-12-29T13:09:57;5.10;;;1.70;;
59271;SDS011;45043;51.068;7.026;2022-12-29T13:23:26;5.73;;;1.90;;
59271;SDS011;45043;51.068;7.026;2022-12-29T13:26:36;9.80;;;1.80;;
59271;SDS011;45043;51.068;7.026;2022-12-29T13:33:01;3.57;;;1.73;;
59271;SDS011;45043;51.068;7.026;2022-12-29T13:36:06;5.00;;;1.70;;
59271;SDS011;45043;51.068;7.026;2022-12-29T13:39:19;5.23;;;1.70;;
59271;SDS011;45043;51.068;7.026;2022-12-29T13:42:24;5.03;;;1.70;;
59271;SDS011;45043;51.068;7.026;2022-12-29T13:45:26;6.47;;;1.80;;
59271;SDS011;45043;51.068;7.026;2022-12-29T13:48:35;5.13;;;2.47;;
59271;SDS011;45043;51.068;7.026;2022-12-29T13:51:41;7.03;;;2.07;;
59271;SDS011;45043;51.068;7.026;2022-12-29T13:55:02;7.87;;;1.80;;
59271;SDS011;45043;51.068;7.026;2022-12-29T13:58:27;7.10;;;2.27;;
59271;SDS011;45043;51.068;7.026;2022-12-29T14:04:34;6.03;;;2.03;;
59271;SDS011;45043;51.068;7.026;2022-12-29T14:07:36;3.73;;;1.67;;
59271;SDS011;45043;51.068;7.026;2022-12-29T14:10:46;3.40;;;1.80;;
59271;SDS011;45043;51.068;7.026;2022-12-29T14:13:48;4.77;;;1.87;;
59271;SDS011;45043;51.068;7.026;2022-12-29T14:16:49;3.63;;;1.93;;
59271;SDS011;45043;51.068;7.026;2022-12-29T14:19:53;6.37;;;2.07;;
59271;SDS011;45043;51.068;7.026;2022-12-29T14:35:45;3.90;;;1.60;;
59271;SDS011;45043;51.068;7.026;2022-12-29T14:38:49;2.63;;;1.17;;
59271;SDS011;45043;51.068;7.026;2022-12-29T14:41:59;3.47;;;1.53;;
59271;SDS011;45043;51.068;7.026;2022-12-29T14:48:52;4.70;;;2.40;;
59271;SDS011;45043;51.068;7.026;2022-12-29T14:51:44;4.80;;;1.80;;
59271;SDS011;45043;51.068;7.026;2022-12-29T14:57:51;6.30;;;1.80;;
59271;SDS011;45043;51.068;7.026;2022-12-29T15:00:59;4.10;;;1.50;;
59271;SDS011;45043;51.068;7.026;2022-12-29T15:04:06;6.03;;;1.70;;
59271;SDS011;45043;51.068;7.026;2022-12-29T15:07:30;4.00;;;1.60;;
59271;SDS011;45043;51.068;7.026;2022-12-29T15:10:34;3.70;;;1.30;;
59271;SDS011;45043;51.068;7.026;2022-12-29T15:13:40;6.00;;;1.93;;
59271;SDS011;45043;51.068;7.026;2022-12-29T15:16:43;3.13;;;1.60;;
59271;SDS011;45043;51.068;7.026;2022-12-29T15:19:44;3.47;;;1.33;;
59271;SDS011;45043;51.068;7.026;2022-12-29T15:22:45;5.33;;;1.87;;
59271;SDS011;45043;51.068;7.026;2022-12-29T15:25:57;5.33;;;1.57;;
59271;SDS011;45043;51.068;7.026;2022-12-29T15:28:58;5.10;;;1.77;;
59271;SDS011;45043;51.068;7.026;2022-12-29T15:31:59;8.57;;;2.00;;
59271;SDS011;45043;51.068;7.026;2022-12-29T15:35:00;5.07;;;1.97;;
59271;SDS011;45043;51.068;7.026;2022-12-29T15:38:24;6.17;;;1.90;;
59271;SDS011;45043;51.068;7.026;2022-12-29T15:45:26;5.13;;;1.70;;
59271;SDS011;45043;51.068;7.026;2022-12-29T15:48:32;5.23;;;1.80;;
59271;SDS011;45043;51.068;7.026;2022-12-29T15:51:34;4.23;;;1.73;;
59271;SDS011;45043;51.068;7.026;2022-12-29T15:54:38;4.73;;;1.90;;
59271;SDS011;45043;51.068;7.026;2022-12-29T15:57:42;7.83;;;2.03;;
59271;SDS011;45043;51.068;7.026;2022-12-29T16:00:46;5.97;;;1.70;;
59271;SDS011;45043;51.068;7.026;2022-12-29T16:03:53;5.30;;;2.10;;
59271;SDS011;45043;51.068;7.026;2022-12-29T16:06:58;4.67;;;1.70;;
59271;SDS011;45043;51.068;7.026;2022-12-29T16:10:02;10.60;;;2.43;;
59271;SDS011;45043;51.068;7.026;2022-12-29T16:13:04;4.93;;;2.20;;
59271;SDS011;45043;51.068;7.026;2022-12-29T16:16:16;4.77;;;1.77;;
59271;SDS011;45043;51.068;7.026;2022-12-29T16:19:21;6.23;;;2.00;;
59271;SDS011;45043;51.068;7.026;2022-12-29T16:22:38;6.47;;;2.07;;
59271;SDS011;45043;51.068;7.026;2022-12-29T16:25:40;5.57;;;2.10;;
59271;SDS011;45043;51.068;7.026;2022-12-29T16:28:41;7.60;;;2.00;;
59271;SDS011;45043;51.068;7.026;2022-12-29T16:34:48;5.73;;;2.03;;
59271;SDS011;45043;51.068;7.026;2022-12-29T16:41:28;8.20;;;2.27;;
59271;SDS011;45043;51.068;7.026;2022-12-29T16:44:30;6.43;;;2.30;;
59271;SDS011;45043;51.068;7.026;2022-12-29T16:47:31;9.77;;;2.50;;
59271;SDS011;45043;51.068;7.026;2022-12-29T16:50:32;5.47;;;2.00;;
59271;SDS011;45043;51.068;7.026;2022-12-29T16:53:35;8.97;;;2.80;;
59271;SDS011;45043;51.068;7.026;2022-12-29T16:56:38;6.80;;;2.37;;
59271;SDS011;45043;51.068;7.026;2022-12-29T16:59:44;5.17;;;2.20;;
59271;SDS011;45043;51.068;7.026;2022-12-29T17:02:45;8.60;;;2.50;;
59271;SDS011;45043;51.068;7.026;2022-12-29T17:05:46;6.93;;;2.43;;
59271;SDS011;45043;51.068;7.026;2022-12-29T17:08:48;8.57;;;2.50;;
59271;SDS011;45043;51.068;7.026;2022-12-29T17:11:50;7.93;;;2.63;;
59271;SDS011;45043;51.068;7.026;2022-12-29T17:14:56;9.43;;;2.57;;
59271;SDS011;45043;51.068;7.026;2022-12-29T17:18:00;9.17;;;2.60;;
59271;SDS011;45043;51.068;7.026;2022-12-29T17:21:01;8.23;;;2.40;;
59271;SDS011;45043;51.068;7.026;2022-12-29T17:24:01;9.67;;;3.07;;
59271;SDS011;45043;51.068;7.026;2022-12-29T17:27:02;10.67;;;2.87;;
59271;SDS011;45043;51.068;7.026;2022-12-29T17:30:04;13.70;;;3.67;;
59271;SDS011;45043;51.068;7.026;2022-12-29T17:33:16;10.37;;;3.00;;
59271;SDS011;45043;51.068;7.026;2022-12-29T17:36:18;9.07;;;2.70;;
59271;SDS011;45043;51.068;7.026;2022-12-29T17:39:19;12.07;;;3.30;;
59271;SDS011;45043;51.068;7.026;2022-12-29T17:42:19;5.77;;;2.27;;
59271;SDS011;45043;51.068;7.026;2022-12-29T17:45:20;9.13;;;3.20;;
59271;SDS011;45043;51.068;7.026;2022-12-29T17:48:23;9.30;;;3.37;;
59271;SDS011;45043;51.068;7.026;2022-12-29T17:51:24;8.13;;;2.80;;
59271;SDS011;45043;51.068;7.026;2022-12-29T17:54:25;9.37;;;3.00;;
59271;SDS011;45043;51.068;7.026;2022-12-29T17:57:25;6.67;;;2.90;;
59271;SDS011;45043;51.068;7.026;2022-12-29T18:00:27;11.47;;;2.80;;
59271;SDS011;45043;51.068;7.026;2022-12-29T18:03:33;8.83;;;3.30;;
59271;SDS011;45043;51.068;7.026;2022-12-29T18:06:36;9.20;;;2.97;;
59271;SDS011;45043;51.068;7.026;2022-12-29T18:09:36;7.77;;;3.00;;
59271;SDS011;45043;51.068;7.026;2022-12-29T18:12:40;9.20;;;3.40;;
59271;SDS011;45043;51.068;7.026;2022-12-29T18:15:43;7.87;;;3.00;;
59271;SDS011;45043;51.068;7.026;2022-12-29T18:18:44;6.93;;;3.10;;
59271;SDS011;45043;51.068;7.026;2022-12-29T18:21:44;10.23;;;3.70;;
59271;SDS011;45043;51.068;7.026;2022-12-29T18:24:45;6.80;;;2.60;;
59271;SDS011;45043;51.068;7.026;2022-12-29T18:27:45;8.50;;;3.03;;
59271;SDS011;45043;51.068;7.026;2022-12-29T18:30:46;7.33;;;2.63;;
59271;SDS011;45043;51.068;7.026;2022-12-29T18:33:47;8.90;;;3.20;;
59271;SDS011;45043;51.068;7.026;2022-12-29T18:36:49;9.03;;;3.00;;
59271;SDS011;45043;51.068;7.026;2022-12-29T18:39:51;9.23;;;2.77;;
59271;SDS011;45043;51.068;7.026;2022-12-29T18:42:51;10.07;;;2.83;;
59271;SDS011;45043;51.068;7.026;2022-12-29T18:45:52;6.13;;;2.60;;
59271;SDS011;45043;51.068;7.026;2022-12-29T18:48:52;9.70;;;2.97;;
59271;SDS011;45043;51.068;7.026;2022-12-29T18:51:53;7.83;;;3.23;;
59271;SDS011;45043;51.068;7.026;2022-12-29T18:54:54;11.50;;;2.90;;
59271;SDS011;45043;51.068;7.026;2022-12-29T18:57:54;9.77;;;3.23;;
59271;SDS011;45043;51.068;7.026;2022-12-29T19:00:55;11.07;;;3.83;;
59271;SDS011;45043;51.068;7.026;2022-12-29T19:03:55;10.70;;;3.00;;
59271;SDS011;45043;51.068;7.026;2022-12-29T19:06:55;12.63;;;3.30;;
59271;SDS011;45043;51.068;7.026;2022-12-29T19:09:56;9.10;;;2.90;;
59271;SDS011;45043;51.068;7.026;2022-12-29T19:12:59;8.93;;;2.60;;
59271;SDS011;45043;51.068;7.026;2022-12-29T19:16:00;11.50;;;3.10;;
59271;SDS011;45043;51.068;7.026;2022-12-29T19:19:01;8.97;;;3.03;;
59271;SDS011;45043;51.068;7.026;2022-12-29T19:22:03;14.63;;;4.40;;
59271;SDS011;45043;51.068;7.026;2022-12-29T19:25:04;8.17;;;2.80;;
59271;SDS011;45043;51.068;7.026;2022-12-29T19:28:05;10.07;;;3.00;;
59271;SDS011;45043;51.068;7.026;2022-12-29T19:31:08;10.03;;;3.60;;
59271;SDS011;45043;51.068;7.026;2022-12-29T19:34:12;9.03;;;3.50;;
59271;SDS011;45043;51.068;7.026;2022-12-29T19:37:13;10.47;;;3.10;;
59271;SDS011;45043;51.068;7.026;2022-12-29T19:40:16;8.47;;;3.10;;
59271;SDS011;45043;51.068;7.026;2022-12-29T19:43:18;12.27;;;3.70;;
59271;SDS011;45043;51.068;7.026;2022-12-29T19:46:19;7.07;;;2.50;;
59271;SDS011;45043;51.068;7.026;2022-12-29T19:49:20;9.83;;;3.00;;
59271;SDS011;45043;51.068;7.026;2022-12-29T19:52:20;8.33;;;3.80;;
59271;SDS011;45043;51.068;7.026;2022-12-29T19:55:21;9.77;;;3.03;;
59271;SDS011;45043;51.068;7.026;2022-12-29T19:58:21;10.10;;;3.10;;
59271;SDS011;45043;51.068;7.026;2022-12-29T20:01:22;10.50;;;3.70;;
59271;SDS011;45043;51.068;7.026;2022-12-29T20:04:23;9.50;;;3.10;;
59271;SDS011;45043;51.068;7.026;2022-12-29T20:07:24;9.93;;;3.63;;
59271;SDS011;45043;51.068;7.026;2022-12-29T20:10:25;9.07;;;3.17;;
59271;SDS011;45043;51.068;7.026;2022-12-29T20:13:26;12.57;;;3.50;;
59271;SDS011;45043;51.068;7.026;2022-12-29T20:16:26;11.00;;;3.10;;
59271;SDS011;45043;51.068;7.026;2022-12-29T20:19:28;8.37;;;3.30;;
59271;SDS011;45043;51.068;7.026;2022-12-29T20:22:29;8.70;;;3.70;;
59271;SDS011;45043;51.068;7.026;2022-12-29T20:25:29;9.77;;;3.20;;
59271;SDS011;45043;51.068;7.026;2022-12-29T20:28:30;11.43;;;3.80;;
59271;SDS011;45043;51.068;7.026;2022-12-29T20:31:32;7.77;;;3.30;;
59271;SDS011;45043;51.068;7.026;2022-12-29T20:34:35;7.97;;;3.40;;
59271;SDS011;45043;51.068;7.026;2022-12-29T20:37:36;10.77;;;3.47;;
59271;SDS011;45043;51.068;7.026;2022-12-29T20:40:37;7.60;;;2.97;;
59271;SDS011;45043;51.068;7.026;2022-12-29T20:43:37;8.43;;;3.00;;
59271;SDS011;45043;51.068;7.026;2022-12-29T20:46:38;9.57;;;3.70;;
59271;SDS011;45043;51.068;7.026;2022-12-29T20:49:40;8.10;;;2.67;;